Time;durP1;ratioP1;P1;durP2;ratioP2;P2;SDS_P1;SDS_P2;PMS_P1;PMS_P2;Temp;Humidity;BMP_temperature;BMP_pressure;BME280_temperature;BME280_humidity;BME280_pressure;Samples;Min_cycle;Max_cycle;Signal;HPM_P1;HPM_P2
2021/12/29 00:00:38;;;;;;;2.10;0.20;;;24.70;92.30;;;;;;5103506;28;20032;-75
2021/12/29 00:03:06;;;;;;;1.08;0.57;;;24.90;92.20;;;;;;5098879;28;20406;-75
2021/12/29 00:05:33;;;;;;;0.20;0.03;;;24.90;92.10;;;;;;5101923;28;20031;-75
2021/12/29 00:08:01;;;;;;;1.85;0.20;;;24.90;91.50;;;;;;5097542;28;20125;-75
2021/12/29 00:10:29;;;;;;;1.25;0.00;;;24.90;91.70;;;;;;5097026;28;20028;-74
2021/12/29 00:12:57;;;;;;;0.43;0.00;;;24.80;91.50;;;;;;5097449;28;20031;-75
2021/12/29 00:15:27;;;;;;;0.77;0.20;;;24.50;91.40;;;;;;5095918;28;22766;-75
2021/12/29 00:17:57;;;;;;;0.95;0.20;;;24.20;91.70;;;;;;5087731;28;20036;-75
2021/12/29 00:20:28;;;;;;;2.15;0.45;;;24.20;91.80;;;;;;5088626;28;20055;-77
2021/12/29 00:23:01;;;;;;;0.77;0.10;;;24.10;92.00;;;;;;5088422;28;20101;-76
2021/12/29 00:25:29;;;;;;;0.30;0.13;;;24.10;92.50;;;;;;5096818;28;20069;-76
2021/12/29 00:27:59;;;;;;;2.67;0.20;;;23.80;91.90;;;;;;5103664;28;20027;-76
2021/12/29 00:30:27;;;;;;;2.00;0.10;;;23.70;92.50;;;;;;5109589;28;20036;-76
2021/12/29 00:32:55;;;;;;;0.80;0.13;;;23.70;92.20;;;;;;5097858;28;20174;-76
2021/12/29 00:35:23;;;;;;;0.30;0.15;;;23.50;92.50;;;;;;5110425;28;20098;-76
2021/12/29 00:37:50;;;;;;;0.98;0.05;;;23.30;92.80;;;;;;5110133;28;20103;-76
2021/12/29 00:40:17;;;;;;;3.47;0.22;;;23.20;92.80;;;;;;5102180;28;20044;-77
2021/12/29 00:42:45;;;;;;;0.43;0.20;;;23.20;93.40;;;;;;5100468;27;20751;-76
2021/12/29 00:45:15;;;;;;;0.65;0.00;;;23.20;92.80;;;;;;5098331;28;20044;-76
2021/12/29 00:47:43;;;;;;;0.90;0.22;;;23.00;93.10;;;;;;5106021;28;20028;-76
2021/12/29 00:50:15;;;;;;;1.90;0.20;;;23.10;93.10;;;;;;5106730;28;20019;-75
2021/12/29 00:52:46;;;;;;;0.40;0.10;;;23.10;93.00;;;;;;5110478;28;20059;-75
2021/12/29 00:55:16;;;;;;;0.50;0.32;;;23.00;93.70;;;;;;5106667;28;20024;-76
2021/12/29 00:57:43;;;;;;;1.27;0.80;;;23.10;93.30;;;;;;5109173;28;20031;-76
2021/12/29 01:00:16;;;;;;;2.33;0.30;;;23.10;93.60;;;;;;5107584;28;20077;-75
2021/12/29 01:02:44;;;;;;;2.05;0.13;;;22.90;93.50;;;;;;5104551;28;20024;-75
2021/12/29 01:05:14;;;;;;;0.47;0.10;;;22.80;93.90;;;;;;5108408;28;20027;-75
2021/12/29 01:07:44;;;;;;;2.75;0.15;;;22.80;93.90;;;;;;5100269;28;20024;-76
2021/12/29 01:10:14;;;;;;;2.08;0.10;;;22.90;93.70;;;;;;5108487;28;20032;-75
2021/12/29 01:12:51;;;;;;;1.05;0.10;;;23.00;93.80;;;;;;5105115;28;20381;-75
2021/12/29 01:15:24;;;;;;;0.85;0.20;;;23.10;94.10;;;;;;5106248;28;20058;-75
2021/12/29 01:17:53;;;;;;;2.45;0.28;;;23.10;95.20;;;;;;5104069;28;20024;-74
2021/12/29 01:20:21;;;;;;;2.15;0.20;;;23.00;96.00;;;;;;5105054;28;20024;-75
2021/12/29 01:22:50;;;;;;;1.70;0.68;;;23.00;96.50;;;;;;5104862;28;20046;-75
2021/12/29 01:25:18;;;;;;;1.55;0.20;;;23.10;96.70;;;;;;5104754;28;20483;-75
2021/12/29 01:27:45;;;;;;;3.50;0.20;;;23.30;96.60;;;;;;5107812;28;20036;-75
2021/12/29 01:30:13;;;;;;;2.20;0.20;;;23.60;96.10;;;;;;5104895;28;20038;-75
2021/12/29 01:32:41;;;;;;;0.63;0.30;;;23.80;96.00;;;;;;5102634;28;20027;-75
2021/12/29 01:35:10;;;;;;;2.60;0.73;;;24.20;95.70;;;;;;5100720;28;20024;-75
2021/12/29 01:37:39;;;;;;;2.05;0.45;;;24.60;95.40;;;;;;5096324;28;20046;-75
2021/12/29 01:40:10;;;;;;;4.63;0.30;;;24.70;94.90;;;;;;5106145;28;20048;-75
2021/12/29 01:42:37;;;;;;;0.75;0.10;;;25.00;94.50;;;;;;5102544;28;20027;-76
2021/12/29 01:45:06;;;;;;;3.65;0.20;;;25.20;93.90;;;;;;5100990;28;20155;-75
2021/12/29 01:47:33;;;;;;;2.85;0.20;;;25.60;93.80;;;;;;5104087;28;20030;-77
2021/12/29 01:50:01;;;;;;;1.83;0.20;;;25.60;93.90;;;;;;5088492;28;20062;-76
2021/12/29 01:52:35;;;;;;;2.42;0.45;;;25.70;93.00;;;;;;5101242;28;20514;-76
2021/12/29 01:55:03;;;;;;;2.38;0.30;;;25.80;93.10;;;;;;5105030;28;20382;-76
2021/12/29 01:57:31;;;;;;;1.92;0.10;;;25.80;92.70;;;;;;5093260;28;20076;-76
2021/12/29 01:59:58;;;;;;;0.93;0.28;;;25.50;92.90;;;;;;5102863;28;20034;-77
2021/12/29 02:02:26;;;;;;;2.85;0.20;;;25.40;93.40;;;;;;5091332;28;20481;-77
2021/12/29 02:04:53;;;;;;;1.35;0.22;;;25.20;93.30;;;;;;5084161;28;20108;-78
2021/12/29 02:07:20;;;;;;;0.75;0.15;;;25.10;93.00;;;;;;5092374;28;20114;-77
2021/12/29 02:09:48;;;;;;;0.45;0.10;;;24.70;93.10;;;;;;5091627;27;20107;-78
2021/12/29 02:12:16;;;;;;;0.40;0.20;;;24.50;93.50;;;;;;5094460;28;20032;-78
2021/12/29 02:14:44;;;;;;;4.53;0.30;;;24.20;94.10;;;;;;5095528;27;20023;-76
2021/12/29 02:17:13;;;;;;;1.73;0.43;;;24.30;94.40;;;;;;5101751;28;20060;-75
2021/12/29 02:19:46;;;;;;;0.32;0.10;;;24.40;93.80;;;;;;5101189;28;20042;-76
2021/12/29 02:22:37;;;;;;;4.43;0.20;;;24.40;93.00;;;;;;5100860;28;20023;-77
2021/12/29 02:27:50;;;;;;;1.85;0.25;;;24.30;92.80;;;;;;5107146;28;20020;-76
2021/12/29 02:30:21;;;;;;;0.43;0.10;;;24.40;93.80;;;;;;5093319;28;20107;-77
2021/12/29 02:32:49;;;;;;;1.77;0.10;;;24.60;92.90;;;;;;5097138;28;20047;-76
2021/12/29 02:35:17;;;;;;;1.48;0.20;;;24.80;92.60;;;;;;5102352;28;20386;-76
2021/12/29 02:37:45;;;;;;;0.80;0.10;;;24.90;92.40;;;;;;5094800;28;20106;-76
2021/12/29 02:40:13;;;;;;;2.20;0.20;;;25.00;92.40;;;;;;5092776;28;20047;-76
2021/12/29 02:42:42;;;;;;;0.38;0.17;;;24.80;92.00;;;;;;5098177;27;20470;-76
2021/12/29 02:45:19;;;;;;;0.45;0.10;;;24.60;92.80;;;;;;5104798;28;20673;-76
2021/12/29 02:47:46;;;;;;;0.28;0.10;;;25.00;92.20;;;;;;5094861;27;20114;-76
2021/12/29 02:50:15;;;;;;;0.98;0.10;;;25.60;92.00;;;;;;5104875;28;20031;-75
2021/12/29 02:52:45;;;;;;;0.55;0.20;;;26.20;91.40;;;;;;5101486;27;20040;-75
2021/12/29 02:55:13;;;;;;;0.80;0.63;;;26.70;90.60;;;;;;5105020;28;20341;-74
2021/12/29 02:57:42;;;;;;;0.77;0.17;;;26.80;90.30;;;;;;5093779;28;20077;-75
2021/12/29 03:00:13;;;;;;;5.00;0.17;;;26.90;91.40;;;;;;5103208;28;20107;-75
2021/12/29 03:02:41;;;;;;;2.10;0.28;;;27.10;90.40;;;;;;5099422;28;20027;-75
2021/12/29 03:05:09;;;;;;;5.00;0.20;;;27.00;90.00;;;;;;5105749;28;20031;-75
2021/12/29 03:07:36;;;;;;;5.18;1.48;;;27.10;89.70;;;;;;5104175;28;20090;-76
2021/12/29 03:10:04;;;;;;;2.25;0.20;;;27.60;89.70;;;;;;5108807;28;20031;-75
2021/12/29 03:12:31;;;;;;;0.60;0.20;;;27.60;89.50;;;;;;5096476;28;20039;-75
2021/12/29 03:14:59;;;;;;;1.38;0.10;;;28.10;90.10;;;;;;5110277;28;20031;-74
2021/12/29 03:17:27;;;;;;;0.98;0.25;;;28.50;88.60;;;;;;5103497;28;20042;-75
2021/12/29 03:19:54;;;;;;;2.13;0.20;;;28.30;87.60;;;;;;5108144;28;20027;-76
2021/12/29 03:22:22;;;;;;;2.33;0.88;;;28.20;89.00;;;;;;5097557;28;20464;-76
2021/12/29 03:24:49;;;;;;;0.70;0.20;;;27.60;87.50;;;;;;5099144;27;20027;-75
2021/12/29 03:27:16;;;;;;;1.33;0.30;;;27.20;88.30;;;;;;5096033;28;20044;-77
2021/12/29 03:29:44;;;;;;;0.45;0.00;;;27.30;90.80;;;;;;5109436;28;20050;-76
2021/12/29 03:32:20;;;;;;;2.28;0.20;;;27.00;88.20;;;;;;5093789;27;20450;-77
2021/12/29 03:34:48;;;;;;;0.52;0.13;;;26.60;88.90;;;;;;5097285;28;21129;-77
2021/12/29 03:37:15;;;;;;;0.47;0.10;;;26.10;90.20;;;;;;5100777;28;20042;-78
2021/12/29 03:39:42;;;;;;;0.73;0.20;;;26.00;90.60;;;;;;5097051;28;20044;-76
2021/12/29 03:42:10;;;;;;;3.10;0.73;;;26.00;91.60;;;;;;5092726;28;20093;-76
2021/12/29 03:44:37;;;;;;;0.77;0.40;;;26.10;91.00;;;;;;5094646;28;20031;-75
2021/12/29 03:47:04;;;;;;;0.70;0.20;;;26.60;90.50;;;;;;5097672;27;20015;-75
2021/12/29 03:49:32;;;;;;;1.45;0.10;;;27.40;91.30;;;;;;5100452;28;20044;-74
2021/12/29 03:51:59;;;;;;;0.82;0.10;;;27.80;90.40;;;;;;5099776;27;20027;-76
2021/12/29 03:54:26;;;;;;;0.63;0.10;;;27.90;89.20;;;;;;5096951;28;20035;-75
2021/12/29 03:56:54;;;;;;;0.82;0.10;;;27.90;89.80;;;;;;5093557;28;20535;-76
2021/12/29 03:59:21;;;;;;;0.10;0.10;;;28.00;87.50;;;;;;5101821;27;20032;-76
2021/12/29 04:01:50;;;;;;;1.13;0.30;;;28.10;87.60;;;;;;5099048;28;20081;-75
2021/12/29 04:04:18;;;;;;;0.63;0.30;;;28.20;85.60;;;;;;5096273;28;20028;-77
2021/12/29 04:06:46;;;;;;;0.40;0.10;;;28.10;88.40;;;;;;5108975;28;20027;-75
2021/12/29 04:09:14;;;;;;;0.28;0.10;;;28.40;89.20;;;;;;5091171;28;20088;-74
2021/12/29 04:11:42;;;;;;;0.90;0.63;;;28.90;86.40;;;;;;5092149;28;20027;-74
2021/12/29 04:14:09;;;;;;;0.40;0.10;;;28.80;85.90;;;;;;5106545;28;20042;-76
2021/12/29 04:16:40;;;;;;;1.38;0.30;;;28.40;85.40;;;;;;5103902;28;20042;-77
2021/12/29 04:19:32;;;;;;;0.17;0.10;;;27.90;85.50;;;;;;5102354;28;20032;-76
2021/12/29 04:21:57;;;;;;;0.57;0.40;;;27.50;86.20;;;;;;5095587;28;20096;-75
2021/12/29 04:24:25;;;;;;;0.32;0.10;;;27.20;87.00;;;;;;5099496;28;20057;-76
2021/12/29 04:26:52;;;;;;;1.52;0.10;;;27.20;88.20;;;;;;5102817;28;20428;-77
2021/12/29 04:29:19;;;;;;;0.28;0.22;;;27.30;88.60;;;;;;5101657;28;20132;-76
2021/12/29 04:31:47;;;;;;;0.32;0.10;;;27.50;88.30;;;;;;5096770;28;20474;-78
2021/12/29 04:34:14;;;;;;;0.30;0.10;;;27.90;88.00;;;;;;5096150;28;20042;-78
2021/12/29 04:36:41;;;;;;;1.60;0.20;;;28.30;86.30;;;;;;5086058;28;20027;-77
2021/12/29 04:39:09;;;;;;;0.73;0.10;;;28.40;85.20;;;;;;5095138;27;20104;-76
2021/12/29 04:41:36;;;;;;;0.55;0.10;;;28.10;85.40;;;;;;5095101;28;20027;-75
2021/12/29 04:44:04;;;;;;;0.85;0.25;;;27.90;86.20;;;;;;5089268;27;20378;-75
2021/12/29 04:46:45;;;;;;;0.80;0.22;;;27.90;86.30;;;;;;5092184;28;20031;-76
2021/12/29 04:49:14;;;;;;;0.90;0.10;;;28.00;85.30;;;;;;5091029;28;20019;-75
2021/12/29 04:51:56;;;;;;;0.25;0.15;;;27.80;84.20;;;;;;5089883;28;20034;-75
2021/12/29 04:54:23;;;;;;;0.32;0.10;;;27.80;85.30;;;;;;5089030;28;20023;-76
2021/12/29 04:56:52;;;;;;;2.05;0.20;;;27.90;85.50;;;;;;5089866;28;20055;-76
2021/12/29 04:59:19;;;;;;;0.75;0.13;;;27.90;85.20;;;;;;5090552;28;20072;-76
2021/12/29 05:01:47;;;;;;;0.38;0.10;;;27.50;85.60;;;;;;5091830;28;20040;-76
2021/12/29 05:04:23;;;;;;;0.17;0.10;;;27.30;86.30;;;;;;5088837;28;20038;-75
2021/12/29 05:09:36;;;;;;;0.17;0.17;;;26.80;87.40;;;;;;5091192;28;20054;-75
2021/12/29 05:12:04;;;;;;;0.47;0.30;;;26.60;87.50;;;;;;5088000;28;20027;-75
2021/12/29 05:14:31;;;;;;;0.70;0.20;;;26.40;88.10;;;;;;5088895;28;20084;-76
2021/12/29 05:16:58;;;;;;;0.85;0.60;;;26.20;88.60;;;;;;5091205;28;20023;-74
2021/12/29 05:19:26;;;;;;;0.85;0.10;;;26.30;90.10;;;;;;5091857;28;20077;-77
2021/12/29 05:21:54;;;;;;;0.10;0.05;;;26.80;89.60;;;;;;5090589;28;20066;-76
2021/12/29 05:24:21;;;;;;;0.60;0.20;;;27.00;88.40;;;;;;5090631;28;20500;-76
2021/12/29 05:26:48;;;;;;;1.23;0.57;;;26.90;86.20;;;;;;5092403;28;20032;-76
2021/12/29 05:29:15;;;;;;;0.55;0.20;;;26.90;87.00;;;;;;5090507;28;20031;-76
2021/12/29 05:31:43;;;;;;;1.05;0.10;;;27.20;87.00;;;;;;5089458;28;20903;-76
2021/12/29 05:34:10;;;;;;;0.73;0.08;;;27.50;86.40;;;;;;5093474;28;20567;-75
2021/12/29 05:36:38;;;;;;;1.10;0.10;;;27.70;86.00;;;;;;5098068;28;20065;-76
2021/12/29 05:39:05;;;;;;;0.20;0.10;;;27.90;87.20;;;;;;5093112;28;20454;-76
2021/12/29 05:41:32;;;;;;;0.10;0.10;;;28.10;87.00;;;;;;5087282;28;20203;-77
2021/12/29 05:44:00;;;;;;;1.65;0.30;;;28.30;85.40;;;;;;5096279;28;20044;-76
2021/12/29 05:46:27;;;;;;;0.20;0.10;;;28.20;84.00;;;;;;5096017;28;20043;-76
2021/12/29 05:48:55;;;;;;;1.42;0.15;;;28.20;85.20;;;;;;5092408;28;20039;-76
2021/12/29 05:51:22;;;;;;;3.58;0.68;;;28.20;88.70;;;;;;5095185;27;20509;-78
2021/12/29 05:53:50;;;;;;;0.57;0.28;;;28.00;87.30;;;;;;5094402;28;21011;-76
2021/12/29 05:56:17;;;;;;;0.45;0.20;;;27.50;89.10;;;;;;5093574;28;20015;-76
2021/12/29 05:58:45;;;;;;;0.47;0.20;;;27.30;90.10;;;;;;5093336;28;20046;-77
2021/12/29 06:01:12;;;;;;;1.25;0.35;;;27.30;88.70;;;;;;5098980;28;20028;-76
2021/12/29 06:03:40;;;;;;;1.98;0.20;;;27.10;89.00;;;;;;5097292;27;20059;-76
2021/12/29 06:06:07;;;;;;;2.10;0.30;;;26.70;89.10;;;;;;5095968;27;20155;-76
2021/12/29 06:08:35;;;;;;;1.55;0.20;;;26.50;90.00;;;;;;5092764;27;20079;-77
2021/12/29 06:11:02;;;;;;;2.60;0.50;;;26.40;90.30;;;;;;5088430;27;20042;-77
2021/12/29 06:13:30;;;;;;;0.65;0.10;;;26.40;90.10;;;;;;5094291;27;20051;-78
2021/12/29 06:15:57;;;;;;;0.38;0.10;;;26.60;89.10;;;;;;5092546;28;20032;-78
2021/12/29 06:18:24;;;;;;;0.38;0.30;;;26.70;88.90;;;;;;5092261;28;20080;-78
2021/12/29 06:20:52;;;;;;;1.85;0.20;;;26.90;89.80;;;;;;5095819;27;20023;-79
2021/12/29 06:23:20;;;;;;;0.80;0.20;;;26.90;89.10;;;;;;5092768;28;20035;-78
2021/12/29 06:25:48;;;;;;;2.35;0.70;;;26.90;90.20;;;;;;5094741;27;20023;-79
2021/12/29 06:28:16;;;;;;;1.48;0.20;;;26.90;90.40;;;;;;5092507;28;20039;-78
2021/12/29 06:30:43;;;;;;;1.90;0.30;;;26.70;90.50;;;;;;5094342;28;20351;-78
2021/12/29 06:33:10;;;;;;;1.67;0.25;;;26.30;90.90;;;;;;5094008;28;20538;-78
2021/12/29 06:35:38;;;;;;;0.70;0.22;;;25.90;91.20;;;;;;5095349;28;20088;-79
2021/12/29 06:38:05;;;;;;;2.00;0.22;;;25.90;91.40;;;;;;5089577;27;20118;-76
2021/12/29 06:40:33;;;;;;;1.35;0.17;;;26.00;91.20;;;;;;5091647;28;20108;-77
2021/12/29 06:43:00;;;;;;;1.23;0.20;;;26.10;91.10;;;;;;5092865;28;20042;-77
2021/12/29 06:45:28;;;;;;;1.05;0.10;;;26.20;90.90;;;;;;5071445;28;20773;-78
2021/12/29 06:47:55;;;;;;;0.73;0.10;;;26.10;90.70;;;;;;5092781;28;20059;-77
2021/12/29 06:50:23;;;;;;;0.20;0.10;;;26.00;90.50;;;;;;5092335;28;20445;-78
2021/12/29 06:52:50;;;;;;;0.47;0.20;;;26.10;90.80;;;;;;5093356;28;20031;-77
2021/12/29 06:55:18;;;;;;;0.45;0.28;;;26.10;90.80;;;;;;5091912;28;20377;-78
2021/12/29 06:57:45;;;;;;;0.55;0.20;;;26.20;90.70;;;;;;5092574;27;20470;-77
2021/12/29 07:00:13;;;;;;;0.98;0.28;;;26.20;90.70;;;;;;5092397;27;20040;-78
2021/12/29 07:02:41;;;;;;;0.65;0.32;;;26.10;90.70;;;;;;5073825;28;20386;-77
2021/12/29 07:05:09;;;;;;;2.60;0.20;;;26.00;90.60;;;;;;5089232;27;20126;-77
2021/12/29 07:07:36;;;;;;;0.63;0.15;;;26.00;90.80;;;;;;5089525;28;20024;-77
2021/12/29 07:10:05;;;;;;;0.35;0.10;;;25.80;90.70;;;;;;5088596;28;20118;-79
2021/12/29 07:12:32;;;;;;;1.23;0.30;;;25.50;91.30;;;;;;5088562;27;20024;-76
2021/12/29 07:15:00;;;;;;;0.82;0.20;;;25.50;91.60;;;;;;5091260;27;20031;-76
2021/12/29 07:17:27;;;;;;;1.73;0.20;;;25.50;91.50;;;;;;5097517;28;20034;-76
2021/12/29 07:19:54;;;;;;;2.10;0.90;;;25.60;91.70;;;;;;5099216;28;20031;-78
2021/12/29 07:22:23;;;;;;;2.90;0.30;;;25.60;91.70;;;;;;5095584;28;20453;-77
2021/12/29 07:24:50;;;;;;;0.30;0.15;;;25.70;91.30;;;;;;5095838;27;20042;-78
2021/12/29 07:27:17;;;;;;;0.80;0.08;;;25.70;91.60;;;;;;5107071;28;20024;-78
2021/12/29 07:29:45;;;;;;;0.93;0.22;;;25.60;91.40;;;;;;5095832;28;20043;-77
2021/12/29 07:32:12;;;;;;;3.13;0.30;;;25.60;91.70;;;;;;5095795;28;20099;-76
2021/12/29 07:34:42;;;;;;;2.85;0.32;;;25.60;91.50;;;;;;5099085;28;20024;-77
2021/12/29 07:37:11;;;;;;;1.77;0.20;;;25.50;91.30;;;;;;5089995;27;20027;-76
2021/12/29 07:39:39;;;;;;;2.00;0.40;;;25.40;91.60;;;;;;5084729;28;22260;-76
2021/12/29 07:42:06;;;;;;;1.20;0.15;;;25.30;91.50;;;;;;5090909;27;20064;-77
2021/12/29 07:44:34;;;;;;;0.52;0.20;;;25.20;91.70;;;;;;5091686;27;20035;-76
2021/12/29 07:47:01;;;;;;;1.70;0.20;;;25.20;91.60;;;;;;5094216;28;20134;-75
2021/12/29 07:49:29;;;;;;;0.47;0.20;;;25.10;91.40;;;;;;5090368;27;20068;-76
2021/12/29 07:51:56;;;;;;;0.30;0.10;;;25.10;91.50;;;;;;5088503;28;20580;-76
2021/12/29 07:54:24;;;;;;;1.55;0.20;;;25.00;91.50;;;;;;5086565;28;20023;-76
2021/12/29 07:56:52;;;;;;;0.13;0.10;;;24.90;91.60;;;;;;5089698;27;20028;-76
2021/12/29 07:59:19;;;;;;;1.42;0.20;;;24.90;91.30;;;;;;5090674;28;20512;-75
2021/12/29 08:01:47;;;;;;;1.10;0.35;;;24.80;91.50;;;;;;5090019;28;20030;-76
2021/12/29 08:04:21;;;;;;;0.57;0.43;;;24.70;91.30;;;;;;5090442;28;20044;-76
2021/12/29 08:06:49;;;;;;;6.80;0.40;;;24.70;91.40;;;;;;5089626;27;20034;-76
2021/12/29 08:09:16;;;;;;;0.15;0.15;;;24.70;91.50;;;;;;5087515;28;20904;-77
2021/12/29 08:11:43;;;;;;;1.65;0.20;;;24.60;91.30;;;;;;5090934;27;20035;-77
2021/12/29 08:14:11;;;;;;;0.65;0.10;;;24.60;91.70;;;;;;5089270;28;20015;-76
2021/12/29 08:16:41;;;;;;;0.30;0.28;;;24.50;91.30;;;;;;5090299;28;20031;-76
2021/12/29 08:19:09;;;;;;;6.75;0.45;;;24.40;91.60;;;;;;5087513;27;20516;-77
2021/12/29 08:21:37;;;;;;;1.10;0.20;;;24.30;91.70;;;;;;5084937;27;20032;-75
2021/12/29 08:24:04;;;;;;;0.30;0.20;;;24.20;91.80;;;;;;5091751;28;20066;-77
2021/12/29 08:26:32;;;;;;;0.60;0.20;;;24.10;91.90;;;;;;5089601;28;21589;-75
2021/12/29 08:29:01;;;;;;;3.10;0.30;;;24.10;92.10;;;;;;5084248;28;20035;-75
2021/12/29 08:31:29;;;;;;;1.88;0.73;;;24.00;92.20;;;;;;5086999;28;20020;-75
2021/12/29 08:33:57;;;;;;;1.10;0.20;;;23.90;92.30;;;;;;5090363;28;20080;-76
2021/12/29 08:36:25;;;;;;;1.15;0.10;;;23.90;92.40;;;;;;5093022;28;20023;-74
2021/12/29 08:38:52;;;;;;;1.13;0.17;;;23.90;92.60;;;;;;5089740;28;20036;-77
2021/12/29 08:41:19;;;;;;;1.23;0.10;;;23.80;92.60;;;;;;5089504;28;20501;-76
2021/12/29 08:43:47;;;;;;;0.52;0.10;;;23.70;92.80;;;;;;5090625;28;20439;-76
2021/12/29 08:46:16;;;;;;;0.30;0.20;;;23.60;92.90;;;;;;5090200;28;20723;-77
2021/12/29 08:48:45;;;;;;;0.60;0.20;;;23.50;93.10;;;;;;5088711;28;20039;-77
2021/12/29 08:51:13;;;;;;;0.85;0.30;;;23.40;93.20;;;;;;5092981;28;20035;-76
2021/12/29 08:53:40;;;;;;;0.85;0.20;;;23.30;93.30;;;;;;5086411;27;20107;-75
2021/12/29 08:56:08;;;;;;;0.22;0.10;;;23.10;93.60;;;;;;5091969;28;22438;-76
2021/12/29 08:58:36;;;;;;;0.50;0.38;;;23.10;93.70;;;;;;5087917;28;20062;-76
2021/12/29 09:01:04;;;;;;;0.55;0.20;;;23.10;93.70;;;;;;5088084;28;20138;-76
2021/12/29 09:03:32;;;;;;;1.10;0.20;;;23.10;93.80;;;;;;5084379;28;20043;-76
2021/12/29 09:05:59;;;;;;;1.38;0.30;;;23.00;93.90;;;;;;5088683;28;20024;-76
2021/12/29 09:08:27;;;;;;;0.77;0.20;;;23.00;93.90;;;;;;5089683;28;20039;-77
2021/12/29 09:10:55;;;;;;;3.33;0.25;;;22.90;94.10;;;;;;5089404;28;20059;-77
2021/12/29 09:13:22;;;;;;;1.20;0.20;;;22.80;94.20;;;;;;5088879;28;20067;-77
2021/12/29 09:15:53;;;;;;;2.88;0.30;;;22.80;94.40;;;;;;5091165;28;20015;-77
2021/12/29 09:18:23;;;;;;;0.82;0.10;;;22.70;94.60;;;;;;5089617;28;22254;-76
2021/12/29 09:20:51;;;;;;;1.98;0.30;;;22.70;94.70;;;;;;5091596;28;20089;-77
2021/12/29 09:23:19;;;;;;;0.32;0.10;;;22.60;94.90;;;;;;5105873;28;20035;-76
2021/12/29 09:25:48;;;;;;;0.88;0.17;;;22.60;94.90;;;;;;5073522;28;20092;-76
2021/12/29 09:28:17;;;;;;;0.28;0.20;;;22.50;95.10;;;;;;5088868;28;20482;-76
2021/12/29 09:30:47;;;;;;;0.95;0.22;;;22.30;95.40;;;;;;5085323;28;20046;-76
2021/12/29 09:33:16;;;;;;;2.33;0.90;;;22.30;95.70;;;;;;5081936;28;20572;-76
2021/12/29 09:35:47;;;;;;;0.88;0.22;;;22.20;95.90;;;;;;5083551;28;20028;-76
2021/12/29 09:38:15;;;;;;;0.38;0.20;;;22.20;96.10;;;;;;5085849;28;20036;-75
2021/12/29 09:40:44;;;;;;;0.70;0.20;;;22.10;96.20;;;;;;5084303;28;22287;-75
2021/12/29 09:43:12;;;;;;;1.23;0.10;;;21.90;96.40;;;;;;5083546;28;22376;-75
2021/12/29 09:45:40;;;;;;;2.90;0.22;;;21.80;96.60;;;;;;5086580;28;20679;-76
2021/12/29 09:48:08;;;;;;;1.95;0.30;;;21.80;96.60;;;;;;5083670;28;22699;-76
2021/12/29 09:50:36;;;;;;;1.50;0.20;;;21.80;96.80;;;;;;5083847;28;20038;-77
2021/12/29 09:53:04;;;;;;;1.20;0.20;;;21.70;96.80;;;;;;5082617;28;20028;-76
2021/12/29 09:55:32;;;;;;;0.70;0.17;;;21.70;96.70;;;;;;5083308;28;20035;-75
2021/12/29 09:58:01;;;;;;;3.63;0.40;;;21.70;96.80;;;;;;5081835;28;20024;-76
2021/12/29 10:00:29;;;;;;;3.13;1.10;;;21.70;97.00;;;;;;5082462;28;20135;-75
2021/12/29 10:03:02;;;;;;;1.67;0.40;;;21.70;97.00;;;;;;5081696;28;20039;-75
2021/12/29 10:05:30;;;;;;;4.70;0.82;;;21.60;97.20;;;;;;5081932;28;20516;-75
2021/12/29 10:08:02;;;;;;;5.07;0.45;;;21.60;97.40;;;;;;5082931;28;20031;-76
2021/12/29 10:10:33;;;;;;;5.15;0.73;;;21.50;97.40;;;;;;5083461;28;20944;-75
2021/12/29 10:13:01;;;;;;;6.57;1.15;;;21.40;97.60;;;;;;5082589;28;21628;-76
2021/12/29 10:15:35;;;;;;;1.67;0.20;;;21.40;97.90;;;;;;5083281;28;20023;-76
2021/12/29 10:18:05;;;;;;;0.75;0.20;;;21.30;98.10;;;;;;5081958;28;20524;-75
2021/12/29 10:20:33;;;;;;;0.45;0.30;;;21.20;98.40;;;;;;5086274;28;20111;-76
2021/12/29 10:23:01;;;;;;;0.88;0.38;;;21.00;98.60;;;;;;5088819;28;20032;-76
2021/12/29 10:25:33;;;;;;;2.53;0.60;;;21.00;98.90;;;;;;5090237;28;20035;-80
2021/12/29 10:28:01;;;;;;;2.60;0.40;;;20.80;99.10;;;;;;5087546;28;20104;-76
2021/12/29 10:30:31;;;;;;;1.27;0.68;;;20.70;99.50;;;;;;5097907;28;20024;-76
2021/12/29 10:33:13;;;;;;;2.22;0.60;;;20.50;99.80;;;;;;5091778;27;20385;-78
2021/12/29 10:35:40;;;;;;;2.38;0.40;;;20.50;99.90;;;;;;5092132;27;20073;-77
2021/12/29 10:38:18;;;;;;;0.75;0.32;;;20.50;99.90;;;;;;5094266;27;20028;-76
2021/12/29 10:40:48;;;;;;;2.15;0.20;;;20.40;99.90;;;;;;5093223;27;20047;-77
2021/12/29 10:43:17;;;;;;;1.17;0.40;;;20.30;99.90;;;;;;5091188;27;20051;-76
2021/12/29 10:45:46;;;;;;;1.38;0.30;;;20.20;99.90;;;;;;5094842;28;20020;-78
2021/12/29 10:48:23;;;;;;;1.55;0.20;;;20.10;99.90;;;;;;5093781;28;20035;-76
2021/12/29 10:51:05;;;;;;;3.22;0.30;;;20.10;99.90;;;;;;5091620;28;20034;-77
2021/12/29 10:53:35;;;;;;;3.15;1.15;;;20.10;99.90;;;;;;5094383;28;20036;-75
2021/12/29 10:56:02;;;;;;;2.55;1.13;;;20.00;99.90;;;;;;5092160;28;20473;-77
2021/12/29 10:58:33;;;;;;;5.25;2.67;;;20.00;99.90;;;;;;5090119;27;20031;-77
2021/12/29 11:01:04;;;;;;;3.03;0.90;;;19.90;99.90;;;;;;5092709;28;20894;-77
2021/12/29 11:03:35;;;;;;;2.83;0.30;;;19.90;99.90;;;;;;5091712;28;20569;-77
2021/12/29 11:06:04;;;;;;;2.38;0.25;;;19.90;99.90;;;;;;5091092;28;20047;-77
2021/12/29 11:08:53;;;;;;;1.98;0.60;;;19.90;99.90;;;;;;5089522;28;20035;-77
2021/12/29 11:11:42;;;;;;;2.60;0.80;;;19.90;99.90;;;;;;5089284;27;20035;-76
2021/12/29 11:14:21;;;;;;;2.75;0.52;;;19.90;99.90;;;;;;5095314;27;20032;-75
2021/12/29 11:17:19;;;;;;;2.53;0.55;;;19.90;99.90;;;;;;5091675;27;21809;-75
2021/12/29 11:19:56;;;;;;;1.58;0.70;;;19.80;99.90;;;;;;5085772;27;20047;-76
2021/12/29 11:22:27;;;;;;;1.55;0.22;;;19.70;99.90;;;;;;5090141;27;20030;-76
2021/12/29 11:25:01;;;;;;;4.95;0.32;;;19.70;99.90;;;;;;5086149;27;20088;-75
2021/12/29 11:27:32;;;;;;;1.42;0.30;;;19.60;99.90;;;;;;5087876;28;20024;-76
2021/12/29 11:30:09;;;;;;;0.63;0.30;;;19.60;99.90;;;;;;5089211;28;20100;-78
2021/12/29 11:32:39;;;;;;;1.75;0.50;;;19.60;99.90;;;;;;5093534;28;20046;-76
2021/12/29 11:35:17;;;;;;;2.17;0.45;;;19.60;99.90;;;;;;5091809;27;20035;-76
2021/12/29 11:37:54;;;;;;;1.90;0.73;;;19.60;99.90;;;;;;5093805;28;20056;-76
2021/12/29 11:40:34;;;;;;;2.17;0.40;;;19.50;99.90;;;;;;5092972;28;20047;-76
2021/12/29 11:43:02;;;;;;;1.92;0.30;;;19.50;99.90;;;;;;5091133;27;20615;-77
2021/12/29 11:45:29;;;;;;;0.75;0.63;;;19.50;99.90;;;;;;5091877;28;20889;-77
2021/12/29 11:47:57;;;;;;;3.05;0.30;;;19.40;99.90;;;;;;5089260;28;20032;-77
2021/12/29 11:50:32;;;;;;;1.95;0.40;;;19.40;99.90;;;;;;5091184;28;20042;-77
2021/12/29 11:53:17;;;;;;;;;;;19.40;99.90;;;;;;5094316;28;20031;-76
2021/12/29 11:55:48;;;;;;;1.65;0.50;;;19.30;99.90;;;;;;5093337;28;20397;-77
2021/12/29 11:58:38;;;;;;;1.05;0.40;;;19.30;99.90;;;;;;5092382;28;20028;-76
2021/12/29 12:01:08;;;;;;;1.73;0.40;;;19.30;99.90;;;;;;5097403;27;20065;-76
2021/12/29 12:03:50;;;;;;;1.67;0.40;;;19.40;99.90;;;;;;5096259;28;20080;-74
2021/12/29 12:06:36;;;;;;;0.35;0.30;;;19.40;99.90;;;;;;5095461;28;20035;-75
2021/12/29 12:09:09;;;;;;;2.28;0.93;;;19.50;99.90;;;;;;5089398;28;20088;-77
2021/12/29 12:11:38;;;;;;;1.40;0.47;;;19.60;99.90;;;;;;5092214;28;20650;-76
2021/12/29 12:14:19;;;;;;;0.98;0.60;;;19.60;99.90;;;;;;5091438;27;20393;-77
2021/12/29 12:16:52;;;;;;;2.20;0.70;;;19.70;99.90;;;;;;5092256;28;20039;-74
2021/12/29 12:19:21;;;;;;;0.98;0.35;;;19.80;99.90;;;;;;5089871;28;20236;-78
2021/12/29 12:22:00;;;;;;;1.85;0.63;;;19.80;99.90;;;;;;5093825;28;20024;-75
2021/12/29 12:24:27;;;;;;;1.95;0.80;;;19.80;99.90;;;;;;5091114;27;20466;-73
2021/12/29 12:27:04;;;;;;;1.60;0.60;;;19.80;99.90;;;;;;5090966;28;20028;-77
2021/12/29 12:29:37;;;;;;;1.25;0.65;;;19.70;99.90;;;;;;5092396;28;20064;-77
2021/12/29 12:32:21;;;;;;;1.80;0.75;;;19.60;99.90;;;;;;5092718;28;20038;-77
2021/12/29 12:35:04;;;;;;;2.03;0.65;;;19.60;99.90;;;;;;5097675;28;20038;-77
2021/12/29 12:37:45;;;;;;;2.75;0.63;;;19.60;99.90;;;;;;5098183;28;20035;-76
2021/12/29 12:40:27;;;;;;;4.22;0.52;;;19.50;99.90;;;;;;5092124;28;20505;-76
2021/12/29 12:43:10;;;;;;;2.33;0.57;;;19.50;99.90;;;;;;5096214;28;20028;-75
2021/12/29 12:45:42;;;;;;;3.30;0.75;;;19.50;99.90;;;;;;5091155;28;20031;-75
2021/12/29 12:48:14;;;;;;;5.13;1.13;;;19.40;99.90;;;;;;5090677;28;20020;-76
2021/12/29 12:50:43;;;;;;;2.97;0.60;;;19.40;99.90;;;;;;5092802;28;20023;-74
2021/12/29 12:53:12;;;;;;;4.50;0.52;;;19.40;99.90;;;;;;5090851;28;20027;-76
2021/12/29 12:55:50;;;;;;;2.13;0.55;;;19.40;99.90;;;;;;5093141;28;20803;-76
2021/12/29 12:58:19;;;;;;;2.05;0.50;;;19.40;99.90;;;;;;5092186;27;20043;-76
2021/12/29 13:00:54;;;;;;;2.83;1.27;;;19.40;99.90;;;;;;5092663;28;20486;-76
2021/12/29 13:03:24;;;;;;;2.00;0.57;;;19.40;99.90;;;;;;5090436;28;20040;-76
2021/12/29 13:05:57;;;;;;;1.38;0.50;;;19.40;99.90;;;;;;5071688;28;20553;-75